Time;durP1;ratioP1;P1;durP2;ratioP2;P2;SDS_P1;SDS_P2;PMS_P1;PMS_P2;Temp;Humidity;BMP_temperature;BMP_pressure;BME280_temperature;BME280_humidity;BME280_pressure;Samples;Min_cycle;Max_cycle;Signal;HPM_P1;HPM_P2
2023/04/28 00:01:05;;;;;;;;;;;;;;;17.91;47.86;101204.66;5050783;28;19921;-53
2023/04/28 00:03:31;;;;;;;;;;;;;;;17.86;48.35;101196.41;5053838;28;19940;-54
2023/04/28 00:05:56;;;;;;;;;;;;;;;17.66;47.91;101188.66;5053284;28;19917;-53
2023/04/28 00:08:25;;;;;;;;;;;;;;;17.61;47.67;101185.81;5053151;28;19917;-49
2023/04/28 00:10:51;;;;;;;;;;;;;;;17.38;48.66;101179.31;5053482;28;19980;-49
2023/04/28 00:13:17;;;;;;;;;;;;;;;17.37;48.07;101198.50;5053421;28;19917;-53
2023/04/28 00:15:43;;;;;;;;;;;;;;;17.52;47.87;101192.66;5053048;28;19917;-55
2023/04/28 00:18:08;;;;;;;;;;;;;;;17.69;47.93;101193.59;5053293;28;19937;-55
2023/04/28 00:20:33;;;;;;;;;;;;;;;17.51;48.13;101183.69;5052682;28;19949;-52
2023/04/28 00:22:59;;;;;;;;;;;;;;;17.46;48.04;101172.75;5053265;28;19995;-53
2023/04/28 00:25:24;;;;;;;;;;;;;;;17.43;47.79;101173.22;5050915;28;19909;-55
2023/04/28 00:27:49;;;;;;;;;;;;;;;17.47;47.43;101175.25;5050586;28;19992;-56
2023/04/28 00:30:15;;;;;;;;;;;;;;;17.45;47.24;101163.00;5034652;28;19966;-54
2023/04/28 00:32:41;;;;;;;;;;;;;;;17.61;47.20;101156.06;5018352;28;20009;-52
2023/04/28 00:35:06;;;;;;;;;;;;;;;17.57;46.87;101155.75;5052815;28;19960;-55
2023/04/28 00:37:34;;;;;;;;;;;;;;;17.44;47.04;101143.28;5035509;28;19996;-56
2023/04/28 00:40:00;;;;;;;;;;;;;;;17.19;47.20;101138.06;5035981;28;19940;-53
2023/04/28 00:42:26;;;;;;;;;;;;;;;17.42;48.96;101133.75;5035500;28;19917;-54
2023/04/28 00:44:51;;;;;;;;;;;;;;;17.22;50.32;101134.88;5053354;28;19972;-54
2023/04/28 00:47:17;;;;;;;;;;;;;;;17.41;51.14;101127.50;5052626;28;19924;-50
2023/04/28 00:49:42;;;;;;;;;;;;;;;17.51;51.14;101129.63;5035956;28;19925;-52
2023/04/28 00:52:08;;;;;;;;;;;;;;;17.44;51.96;101123.50;5052994;28;20028;-54
2023/04/28 00:54:33;;;;;;;;;;;;;;;17.54;51.86;101129.16;5069899;28;19969;-53
2023/04/28 00:57:02;;;;;;;;;;;;;;;17.42;52.49;101123.75;5083706;28;19917;-54
2023/04/28 00:59:27;;;;;;;;;;;;;;;17.44;52.88;101113.53;5073131;28;19988;-56
2023/04/28 01:01:53;;;;;;;;;;;;;;;17.37;53.62;101109.28;5072871;28;19924;-55
2023/04/28 01:04:19;;;;;;;;;;;;;;;17.29;52.49;101121.28;5072339;28;19988;-51
2023/04/28 01:06:45;;;;;;;;;;;;;;;17.25;52.91;101115.50;5071026;28;19924;-50
2023/04/28 01:09:11;;;;;;;;;;;;;;;17.51;52.79;101110.69;5071825;28;19931;-52
2023/04/28 01:11:36;;;;;;;;;;;;;;;17.31;52.77;101111.88;5071909;28;19917;-54
2023/04/28 01:14:08;;;;;;;;;;;;;;;17.16;53.02;101106.09;5071890;28;19924;-53
2023/04/28 01:16:37;;;;;;;;;;;;;;;17.40;52.94;101119.63;5073137;28;20275;-54
2023/04/28 01:19:06;;;;;;;;;;;;;;;17.32;52.58;101110.00;5071921;28;19925;-48
2023/04/28 01:21:33;;;;;;;;;;;;;;;17.41;52.74;101105.88;5071108;28;19929;-51
2023/04/28 01:24:22;;;;;;;;;;;;;;;17.22;52.69;101107.88;5067346;28;19954;-54
2023/04/28 01:26:48;;;;;;;;;;;;;;;17.14;52.83;101095.50;5071993;28;19917;-55
2023/04/28 01:29:13;;;;;;;;;;;;;;;17.21;52.74;101098.13;5071236;28;19916;-53
2023/04/28 01:31:40;;;;;;;;;;;;;;;16.96;52.30;101098.28;5071560;28;19916;-53
2023/04/28 01:34:06;;;;;;;;;;;;;;;17.05;52.56;101097.72;5072519;28;19920;-53
2023/04/28 01:36:32;;;;;;;;;;;;;;;17.31;52.12;101101.06;5071936;28;19924;-55
2023/04/28 01:38:58;;;;;;;;;;;;;;;17.35;51.84;101096.00;5082799;28;19952;-55
2023/04/28 01:41:23;;;;;;;;;;;;;;;17.11;52.50;101079.78;5076626;28;19921;-56
2023/04/28 01:43:48;;;;;;;;;;;;;;;17.18;53.05;101075.09;5073670;28;19923;-53
2023/04/28 01:46:14;;;;;;;;;;;;;;;17.19;52.82;101078.59;5076384;28;19956;-52
2023/04/28 01:48:39;;;;;;;;;;;;;;;16.97;53.33;101076.44;5076452;28;19916;-52
2023/04/28 01:51:05;;;;;;;;;;;;;;;17.13;53.02;101068.75;5075297;28;19921;-54
2023/04/28 01:53:31;;;;;;;;;;;;;;;17.18;53.26;101061.59;5075427;28;20094;-51
2023/04/28 01:55:57;;;;;;;;;;;;;;;17.10;53.47;101069.22;5074961;28;19917;-52
2023/04/28 01:58:23;;;;;;;;;;;;;;;17.10;53.61;101063.81;5075605;28;19917;-53
2023/04/28 02:00:49;;;;;;;;;;;;;;;17.17;53.35;101065.31;5074353;28;19954;-51
2023/04/28 02:03:15;;;;;;;;;;;;;;;17.01;53.54;101055.22;5075394;28;19919;-55
2023/04/28 02:05:41;;;;;;;;;;;;;;;16.88;53.11;101056.22;5075421;28;19948;-55
2023/04/28 02:08:06;;;;;;;;;;;;;;;16.86;53.29;101059.16;5075285;28;19917;-56
2023/04/28 02:10:32;;;;;;;;;;;;;;;16.87;53.62;101046.47;5074744;28;19928;-56
2023/04/28 02:12:58;;;;;;;;;;;;;;;17.03;53.13;101045.81;5076208;28;19940;-53
2023/04/28 02:15:23;;;;;;;;;;;;;;;16.89;53.55;101047.06;5075331;28;19916;-54
2023/04/28 02:17:48;;;;;;;;;;;;;;;16.75;54.16;101039.16;5075197;28;19962;-52
2023/04/28 02:20:14;;;;;;;;;;;;;;;16.75;54.09;101041.06;5075667;28;19921;-50
2023/04/28 02:22:40;;;;;;;;;;;;;;;16.65;54.19;101036.22;5076171;28;20256;-56
2023/04/28 02:25:06;;;;;;;;;;;;;;;16.69;54.43;101028.47;5068454;28;19928;-52
2023/04/28 02:27:38;;;;;;;;;;;;;;;16.74;54.73;101029.44;5074952;28;19917;-49
2023/04/28 02:30:04;;;;;;;;;;;;;;;16.62;54.73;101015.91;5073986;28;19917;-53
2023/04/28 02:32:30;;;;;;;;;;;;;;;16.99;54.56;101020.31;5075833;28;19917;-52
2023/04/28 02:34:55;;;;;;;;;;;;;;;16.84;54.71;101018.06;5072945;28;19923;-52
2023/04/28 02:37:21;;;;;;;;;;;;;;;16.75;55.02;101001.34;5074303;28;19916;-52
2023/04/28 02:39:48;;;;;;;;;;;;;;;16.65;55.33;100987.63;5075369;28;19935;-53
2023/04/28 02:42:13;;;;;;;;;;;;;;;16.56;55.53;100983.59;5073860;28;19917;-51
2023/04/28 02:44:39;;;;;;;;;;;;;;;16.86;54.88;100980.03;5074683;28;19920;-58
2023/04/28 02:47:05;;;;;;;;;;;;;;;16.70;55.01;100973.41;5074589;28;19951;-55
2023/04/28 02:49:30;;;;;;;;;;;;;;;16.82;55.46;100973.41;5075487;28;19921;-51
2023/04/28 02:51:56;;;;;;;;;;;;;;;17.00;55.73;100981.44;5074109;28;19939;-51
2023/04/28 02:54:27;;;;;;;;;;;;;;;16.95;56.31;100977.75;5074860;28;19931;-51
2023/04/28 02:56:55;;;;;;;;;;;;;;;16.95;56.96;100973.19;5074117;28;19928;-50
2023/04/28 02:59:21;;;;;;;;;;;;;;;17.00;57.27;100975.22;5074602;28;19917;-57
2023/04/28 03:01:49;;;;;;;;;;;;;;;17.05;56.63;100970.75;5073639;28;20294;-52
2023/04/28 03:04:14;;;;;;;;;;;;;;;16.92;57.07;100977.19;5074867;28;19917;-49
2023/04/28 03:06:41;;;;;;;;;;;;;;;17.10;56.60;100978.16;5075037;28;19924;-53
2023/04/28 03:09:07;;;;;;;;;;;;;;;16.83;57.05;100972.34;5075006;28;19943;-52
2023/04/28 03:11:33;;;;;;;;;;;;;;;16.82;57.96;100971.56;5074489;28;19952;-53
2023/04/28 03:14:00;;;;;;;;;;;;;;;16.76;57.69;100975.19;5074071;28;19917;-55
2023/04/28 03:16:26;;;;;;;;;;;;;;;16.85;56.97;100971.06;5074167;28;19923;-52
2023/04/28 03:18:52;;;;;;;;;;;;;;;16.85;56.85;100965.69;5074184;28;19929;-52
2023/04/28 03:21:18;;;;;;;;;;;;;;;17.01;56.40;100968.78;5074508;28;19991;-53
2023/04/28 03:23:43;;;;;;;;;;;;;;;16.98;56.47;100967.34;5078330;28;19917;-51
2023/04/28 03:26:09;;;;;;;;;;;;;;;16.93;56.44;100964.50;5057910;28;19925;-50
2023/04/28 03:28:34;;;;;;;;;;;;;;;16.80;56.53;100957.47;5074132;28;19924;-52
2023/04/28 03:31:00;;;;;;;;;;;;;;;16.76;56.85;100956.28;5073504;28;19924;-50
2023/04/28 03:33:25;;;;;;;;;;;;;;;16.68;57.61;100954.75;5074941;28;19921;-50
2023/04/28 03:35:52;;;;;;;;;;;;;;;16.70;57.15;100951.81;5071412;28;19984;-51
2023/04/28 03:38:18;;;;;;;;;;;;;;;16.65;57.50;100955.22;5073621;28;19917;-54
2023/04/28 03:40:44;;;;;;;;;;;;;;;16.74;57.58;100945.72;5073426;28;19921;-55
2023/04/28 03:43:09;;;;;;;;;;;;;;;16.63;58.21;100943.84;5074308;28;19985;-53
2023/04/28 03:45:41;;;;;;;;;;;;;;;16.69;57.95;100942.91;5071421;28;19945;-51
2023/04/28 03:48:07;;;;;;;;;;;;;;;16.77;57.94;100947.94;5073700;28;19950;-53
2023/04/28 03:50:32;;;;;;;;;;;;;;;16.73;57.79;100946.75;5073499;28;19921;-49
2023/04/28 03:52:58;;;;;;;;;;;;;;;16.66;57.90;100945.22;5077370;28;19925;-50
2023/04/28 03:55:25;;;;;;;;;;;;;;;16.80;57.39;100941.25;5079447;28;19917;-49
2023/04/28 03:57:50;;;;;;;;;;;;;;;16.82;58.45;100933.75;5074114;28;19965;-49
2023/04/28 04:00:17;;;;;;;;;;;;;;;16.84;58.59;100936.19;5073081;28;19921;-53
2023/04/28 04:02:44;;;;;;;;;;;;;;;16.98;58.66;100918.72;5072513;28;19980;-53
2023/04/28 04:05:10;;;;;;;;;;;;;;;16.99;58.84;100923.06;5072917;28;19923;-50
2023/04/28 04:07:36;;;;;;;;;;;;;;;17.11;58.92;100919.53;5073362;28;19917;-49
2023/04/28 04:10:02;;;;;;;;;;;;;;;17.02;59.78;100922.59;5073014;28;19947;-50
2023/04/28 04:12:27;;;;;;;;;;;;;;;17.18;60.18;100918.38;5072988;28;19966;-53
2023/04/28 04:14:53;;;;;;;;;;;;;;;17.20;60.53;100905.44;5073826;28;19972;-53
2023/04/28 04:17:19;;;;;;;;;;;;;;;17.15;61.02;100915.31;5073139;28;19925;-54
2023/04/28 04:19:45;;;;;;;;;;;;;;;17.12;61.73;100913.09;5072810;28;19921;-52
2023/04/28 04:22:11;;;;;;;;;;;;;;;16.99;61.69;100911.47;5072580;28;20168;-53
2023/04/28 04:24:36;;;;;;;;;;;;;;;16.91;61.77;100904.50;5072728;28;19917;-50
2023/04/28 04:27:02;;;;;;;;;;;;;;;17.32;61.20;100896.47;5073731;28;19913;-52
2023/04/28 04:29:32;;;;;;;;;;;;;;;17.23;60.25;100906.00;5072696;28;19988;-53
2023/04/28 04:31:59;;;;;;;;;;;;;;;17.05;61.53;100905.09;5078706;28;21453;-54
2023/04/28 04:34:25;;;;;;;;;;;;;;;17.67;60.01;100902.81;5073614;28;19916;-53
2023/04/28 04:36:50;;;;;;;;;;;;;;;17.14;61.44;100903.66;5073695;28;19916;-52
2023/04/28 04:39:16;;;;;;;;;;;;;;;17.25;61.41;100899.28;5072413;28;19917;-53
2023/04/28 04:41:42;;;;;;;;;;;;;;;17.71;60.41;100896.69;5073320;28;19921;-51
2023/04/28 04:44:36;;;;;;;;;;;;;;;17.29;61.50;100888.84;5055343;28;19924;-53
2023/04/28 04:47:05;;;;;;;;;;;;;;;17.30;61.57;100890.47;5072098;28;19917;-54
2023/04/28 04:49:32;;;;;;;;;;;;;;;17.19;61.79;100892.16;5071270;28;20052;-55
2023/04/28 04:52:01;;;;;;;;;;;;;;;17.32;61.33;100889.19;5072074;28;19971;-52
2023/04/28 04:54:29;;;;;;;;;;;;;;;17.56;60.80;100893.69;5070058;28;19928;-54
2023/04/28 04:56:56;;;;;;;;;;;;;;;17.54;61.02;100901.22;5072208;28;19948;-53
2023/04/28 04:59:39;;;;;;;;;;;;;;;17.29;61.00;100899.66;5072404;28;19952;-55
2023/04/28 05:02:10;;;;;;;;;;;;;;;17.48;61.53;100887.59;5070877;28;19970;-54
2023/04/28 05:04:35;;;;;;;;;;;;;;;17.44;61.55;100881.03;5072410;28;19928;-51
2023/04/28 05:07:00;;;;;;;;;;;;;;;17.52;61.62;100882.50;5068920;28;19996;-55
2023/04/28 05:09:30;;;;;;;;;;;;;;;17.54;61.95;100880.41;5068958;28;19937;-52
2023/04/28 05:11:58;;;;;;;;;;;;;;;17.57;62.04;100877.22;5069570;28;19921;-53
2023/04/28 05:14:24;;;;;;;;;;;;;;;17.53;62.29;100876.06;5074580;28;20004;-54
2023/04/28 05:16:50;;;;;;;;;;;;;;;17.68;63.22;100878.25;5076336;28;19916;-53
2023/04/28 05:19:22;;;;;;;;;;;;;;;17.75;65.07;100861.84;5075167;28;19920;-55
2023/04/28 05:21:48;;;;;;;;;;;;;;;17.43;70.51;100859.63;5074773;28;19963;-55
2023/04/28 05:24:14;;;;;;;;;;;;;;;17.44;72.88;100856.72;5075495;28;19939;-51
2023/04/28 05:26:39;;;;;;;;;;;;;;;17.52;74.57;100852.78;5075336;28;19927;-53
2023/04/28 05:29:07;;;;;;;;;;;;;;;17.45;77.01;100865.63;5074038;28;19928;-50
2023/04/28 05:31:33;;;;;;;;;;;;;;;17.26;78.01;100865.00;5084549;28;19921;-50
2023/04/28 05:33:59;;;;;;;;;;;;;;;17.28;79.76;100857.47;5075292;28;20003;-48
2023/04/28 05:36:24;;;;;;;;;;;;;;;17.22;82.14;100850.31;5075903;28;19928;-51
2023/04/28 05:38:50;;;;;;;;;;;;;;;17.11;84.03;100854.69;5075408;28;20043;-53
2023/04/28 05:41:17;;;;;;;;;;;;;;;17.31;84.34;100857.81;5075336;28;19996;-50
2023/04/28 05:43:42;;;;;;;;;;;;;;;17.39;84.59;100864.69;5075040;28;19916;-51
2023/04/28 05:46:09;;;;;;;;;;;;;;;17.46;85.37;100869.97;5074622;28;19978;-57
2023/04/28 05:48:35;;;;;;;;;;;;;;;17.29;86.90;100875.31;5075637;28;19916;-51
2023/04/28 05:51:01;;;;;;;;;;;;;;;17.50;87.25;100876.53;5075910;28;19927;-51
2023/04/28 05:53:26;;;;;;;;;;;;;;;17.37;88.61;100874.94;5057280;28;19921;-51
2023/04/28 05:55:52;;;;;;;;;;;;;;;17.33;90.17;100861.09;5075599;28;19923;-50
2023/04/28 05:58:18;;;;;;;;;;;;;;;17.32;91.08;100851.34;5072238;28;19917;-51
2023/04/28 06:00:44;;;;;;;;;;;;;;;17.49;91.98;100839.75;5073728;28;19937;-52
2023/04/28 06:03:13;;;;;;;;;;;;;;;17.47;93.30;100860.78;5074837;28;19917;-54
2023/04/28 06:05:38;;;;;;;;;;;;;;;17.57;94.95;100852.06;5075139;28;19917;-52
2023/04/28 06:08:06;;;;;;;;;;;;;;;17.50;97.61;100849.50;5075054;28;19925;-50
2023/04/28 06:10:31;;;;;;;;;;;;;;;17.58;97.36;100854.53;5075710;28;19917;-53
2023/04/28 06:12:57;;;;;;;;;;;;;;;17.83;96.50;100858.75;5073439;28;19988;-52
2023/04/28 06:15:22;;;;;;;;;;;;;;;17.74;96.84;100857.50;5075198;28;19921;-53
2023/04/28 06:17:48;;;;;;;;;;;;;;;17.89;97.30;100846.16;5075559;28;20078;-53
2023/04/28 06:20:15;;;;;;;;;;;;;;;18.00;97.49;100849.84;5074497;28;19929;-53
2023/04/28 06:22:40;;;;;;;;;;;;;;;18.03;98.79;100843.97;5073144;28;19928;-50
2023/04/28 06:25:06;;;;;;;;;;;;;;;18.34;98.23;100833.63;5073875;28;19916;-50
2023/04/28 06:27:37;;;;;;;;;;;;;;;18.47;97.50;100844.13;5074215;28;19917;-50
2023/04/28 06:30:02;;;;;;;;;;;;;;;18.47;98.62;100827.88;5074591;28;19917;-49
2023/04/28 06:32:28;;;;;;;;;;;;;;;17.95;100.00;100828.94;5075250;28;19917;-52
2023/04/28 06:34:53;;;;;;;;;;;;;;;18.04;100.00;100838.31;5074099;28;19916;-50
2023/04/28 06:37:19;;;;;;;;;;;;;;;17.97;100.00;100844.91;5074089;28;19993;-54
2023/04/28 06:39:46;;;;;;;;;;;;;;;18.38;100.00;100855.63;5081251;28;19917;-53
2023/04/28 06:42:12;;;;;;;;;;;;;;;18.59;100.00;100856.72;5073932;28;19928;-57
2023/04/28 06:44:41;;;;;;;;;;;;;;;18.88;100.00;100864.69;5057485;28;19960;-58
2023/04/28 06:47:06;;;;;;;;;;;;;;;19.16;100.00;100865.66;5074932;28;19939;-55
2023/04/28 06:49:31;;;;;;;;;;;;;;;19.15;100.00;100861.28;5075075;28;19917;-52
2023/04/28 06:51:59;;;;;;;;;;;;;;;19.17;100.00;100861.88;5072653;28;19917;-55
2023/04/28 06:54:28;;;;;;;;;;;;;;;19.31;100.00;100857.66;5072362;28;19927;-55
2023/04/28 06:56:54;;;;;;;;;;;;;;;19.37;100.00;100852.31;5074586;28;19949;-53
2023/04/28 06:59:22;;;;;;;;;;;;;;;18.86;100.00;100847.88;5074834;28;19976;-54
2023/04/28 07:01:47;;;;;;;;;;;;;;;19.27;100.00;100856.53;5074171;28;19924;-50
2023/04/28 07:04:12;;;;;;;;;;;;;;;19.50;100.00;100851.91;5074388;28;19931;-56
2023/04/28 07:06:38;;;;;;;;;;;;;;;19.32;100.00;100848.47;5074456;28;19927;-57
2023/04/28 07:09:03;;;;;;;;;;;;;;;19.02;100.00;100844.31;5074581;28;19924;-55
2023/04/28 07:11:28;;;;;;;;;;;;;;;19.27;100.00;100840.28;5074573;28;19992;-55
2023/04/28 07:13:53;;;;;;;;;;;;;;;19.56;100.00;100845.47;5074357;28;19916;-53
2023/04/28 07:16:20;;;;;;;;;;;;;;;19.61;100.00;100847.41;5074384;28;19928;-54
2023/04/28 07:18:45;;;;;;;;;;;;;;;19.21;100.00;100841.31;5073292;28;19917;-56
2023/04/28 07:21:10;;;;;;;;;;;;;;;19.06;100.00;100833.81;5074180;28;19932;-54
2023/04/28 07:23:37;;;;;;;;;;;;;;;19.59;100.00;100828.66;5074488;28;19917;-52
2023/04/28 07:26:02;;;;;;;;;;;;;;;19.29;100.00;100831.91;5074106;28;19917;-53
2023/04/28 07:28:29;;;;;;;;;;;;;;;19.61;100.00;100831.13;5073872;28;19924;-54
2023/04/28 07:30:54;;;;;;;;;;;;;;;19.78;100.00;100836.44;5073939;28;19916;-53
2023/04/28 07:33:19;;;;;;;;;;;;;;;19.90;100.00;100831.69;5074185;28;19987;-52
2023/04/28 07:35:45;;;;;;;;;;;;;;;19.12;100.00;100838.22;5073149;28;19995;-50
2023/04/28 07:38:10;;;;;;;;;;;;;;;19.78;100.00;100831.00;5074003;28;19920;-54
2023/04/28 07:40:36;;;;;;;;;;;;;;;19.81;100.00;100826.97;5073616;28;19929;-54
2023/04/28 07:43:02;;;;;;;;;;;;;;;19.54;100.00;100817.78;5073664;28;19917;-50
2023/04/28 07:45:28;;;;;;;;;;;;;;;20.03;100.00;100818.78;5073561;28;19916;-51
2023/04/28 07:47:53;;;;;;;;;;;;;;;20.06;100.00;100823.66;5073382;28;19920;-54
2023/04/28 07:50:19;;;;;;;;;;;;;;;19.96;100.00;100823.59;5073815;28;19973;-52
2023/04/28 07:52:44;;;;;;;;;;;;;;;19.80;100.00;100833.50;5073382;28;19917;-54
2023/04/28 07:55:10;;;;;;;;;;;;;;;19.89;100.00;100834.63;5073557;28;19928;-53
2023/04/28 07:57:36;;;;;;;;;;;;;;;19.12;100.00;100829.25;5073682;28;19924;-53
2023/04/28 08:00:02;;;;;;;;;;;;;;;18.64;100.00;100829.72;5072986;28;20525;-48
2023/04/28 08:02:37;;;;;;;;;;;;;;;18.58;100.00;100833.41;5073258;28;19905;-51
2023/04/28 08:05:02;;;;;;;;;;;;;;;18.94;100.00;100831.19;5073640;28;19921;-52
2023/04/28 08:07:28;;;;;;;;;;;;;;;18.86;100.00;100823.50;5073880;28;19920;-51
2023/04/28 08:09:54;;;;;;;;;;;;;;;18.71;100.00;100832.25;5073463;28;19913;-54
2023/04/28 08:12:19;;;;;;;;;;;;;;;18.67;100.00;100828.41;5073399;28;20242;-51
2023/04/28 08:14:45;;;;;;;;;;;;;;;18.57;100.00;100827.19;5073274;28;19917;-54
2023/04/28 08:17:10;;;;;;;;;;;;;;;18.67;100.00;100831.09;5073364;28;19916;-52
2023/04/28 08:19:36;;;;;;;;;;;;;;;18.90;100.00;100828.16;5072801;28;19927;-53
2023/04/28 08:22:04;;;;;;;;;;;;;;;19.11;100.00;100835.75;5073073;28;19917;-53
2023/04/28 08:24:33;;;;;;;;;;;;;;;18.97;100.00;100836.13;5073040;28;19916;-52
2023/04/28 08:26:59;;;;;;;;;;;;;;;19.13;100.00;100833.59;5070867;28;19923;-55
2023/04/28 08:29:24;;;;;;;;;;;;;;;19.22;100.00;100833.97;5073027;28;19917;-53
2023/04/28 08:31:50;;;;;;;;;;;;;;;19.28;100.00;100833.78;5072964;28;19921;-49
2023/04/28 08:34:15;;;;;;;;;;;;;;;19.27;100.00;100832.16;5073056;28;19924;-51
2023/04/28 08:36:41;;;;;;;;;;;;;;;19.35;100.00;100837.09;5073218;28;19928;-54
2023/04/28 08:39:07;;;;;;;;;;;;;;;19.33;100.00;100833.84;5072706;28;19972;-53
2023/04/28 08:41:36;;;;;;;;;;;;;;;19.32;100.00;100834.91;5073105;28;19921;-53
2023/04/28 08:44:05;;;;;;;;;;;;;;;19.53;100.00;100829.69;5072823;28;19995;-51
2023/04/28 08:46:32;;;;;;;;;;;;;;;19.49;100.00;100836.72;5072150;28;19921;-53
2023/04/28 08:48:59;;;;;;;;;;;;;;;19.50;100.00;100841.06;5072934;28;19942;-52
2023/04/28 08:51:27;;;;;;;;;;;;;;;19.03;100.00;100835.13;5073110;28;19932;-52
2023/04/28 08:53:54;;;;;;;;;;;;;;;19.22;100.00;100837.53;5072446;28;19921;-52
2023/04/28 08:56:21;;;;;;;;;;;;;;;19.11;100.00;100835.75;5073095;28;19920;-51
2023/04/28 08:58:47;;;;;;;;;;;;;;;19.13;100.00;100834.44;5072661;28;19932;-56
2023/04/28 09:01:13;;;;;;;;;;;;;;;19.23;100.00;100831.03;5072938;28;19951;-55
2023/04/28 09:03:39;;;;;;;;;;;;;;;19.40;100.00;100833.63;5072722;28;19916;-55
2023/04/28 09:06:04;;;;;;;;;;;;;;;19.47;100.00;100833.44;5072900;28;19917;-54
2023/04/28 09:08:30;;;;;;;;;;;;;;;19.68;100.00;100829.03;5072577;28;19920;-50
2023/04/28 09:11:07;;;;;;;;;;;;;;;19.54;100.00;100828.63;5072234;28;19917;-51
2023/04/28 09:13:33;;;;;;;;;;;;;;;19.47;100.00;100823.41;5070364;28;19920;-51
2023/04/28 09:16:00;;;;;;;;;;;;;;;19.57;100.00;100827.31;5072455;28;19916;-50
2023/04/28 09:18:25;;;;;;;;;;;;;;;19.20;100.00;100823.41;5073046;28;19916;-50
2023/04/28 09:20:51;;;;;;;;;;;;;;;19.51;100.00;100829.13;5072870;28;19927;-55
2023/04/28 09:23:20;;;;;;;;;;;;;;;20.04;100.00;100837.53;5073103;28;19923;-55
2023/04/28 09:26:01;;;;;;;;;;;;;;;19.95;100.00;100827.41;5073103;28;19913;-55
2023/04/28 09:28:26;;;;;;;;;;;;;;;20.20;100.00;100827.59;5072321;28;19923;-56
2023/04/28 09:30:51;;;;;;;;;;;;;;;19.88;100.00;100825.69;5072810;28;19980;-55
2023/04/28 09:33:17;;;;;;;;;;;;;;;20.24;100.00;100829.78;5073253;28;19924;-50
2023/04/28 09:35:44;;;;;;;;;;;;;;;19.89;100.00;100826.50;5073015;28;19923;-56
2023/04/28 09:38:09;;;;;;;;;;;;;;;20.22;100.00;100830.06;5072922;28;19931;-55
2023/04/28 09:40:55;;;;;;;;;;;;;;;19.91;100.00;100825.22;5073031;28;19944;-55
2023/04/28 09:43:24;;;;;;;;;;;;;;;20.18;100.00;100826.19;5071805;28;19988;-54
2023/04/28 09:45:50;;;;;;;;;;;;;;;20.48;100.00;100832.94;5072780;28;19942;-52
2023/04/28 09:48:16;;;;;;;;;;;;;;;20.33;100.00;100828.22;5073113;28;19917;-56
2023/04/28 09:50:41;;;;;;;;;;;;;;;20.22;100.00;100827.34;5072839;28;19935;-52
2023/04/28 09:53:09;;;;;;;;;;;;;;;20.49;100.00;100826.44;5069902;28;19933;-53
2023/04/28 09:55:35;;;;;;;;;;;;;;;20.60;100.00;100828.09;5072461;28;19917;-55
2023/04/28 09:58:04;;;;;;;;;;;;;;;20.43;100.00;100833.72;5072437;28;19935;-52
2023/04/28 10:00:32;;;;;;;;;;;;;;;20.65;100.00;100827.31;5074944;28;19921;-54
2023/04/28 10:02:58;;;;;;;;;;;;;;;20.77;100.00;100833.38;5076126;28;19961;-54
2023/04/28 10:05:24;;;;;;;;;;;;;;;20.66;100.00;100828.97;5076484;28;20773;-54
2023/04/28 10:07:50;;;;;;;;;;;;;;;20.45;100.00;100822.59;5076474;28;19921;-55
2023/04/28 10:10:15;;;;;;;;;;;;;;;20.17;100.00;100817.25;5076329;28;19916;-52
2023/04/28 10:12:42;;;;;;;;;;;;;;;20.82;100.00;100819.00;5076215;28;20003;-55
2023/04/28 10:15:08;;;;;;;;;;;;;;;20.41;100.00;100821.47;5076166;28;19925;-56
2023/04/28 10:17:35;;;;;;;;;;;;;;;20.45;100.00;100822.59;5075894;28;19965;-55
2023/04/28 10:20:02;;;;;;;;;;;;;;;20.67;100.00;100822.44;5075949;28;19924;-55
2023/04/28 10:22:46;;;;;;;;;;;;;;;21.03;100.00;100817.19;5076056;28;19916;-53
2023/04/28 10:25:26;;;;;;;;;;;;;;;21.00;100.00;100817.75;5074551;28;19917;-57
2023/04/28 10:27:52;;;;;;;;;;;;;;;21.16;100.00;100817.78;5075342;28;19921;-54
2023/04/28 10:30:18;;;;;;;;;;;;;;;20.92;100.00;100839.97;5075738;28;20306;-54
2023/04/28 10:32:47;;;;;;;;;;;;;;;20.83;100.00;100836.16;5075345;28;19948;-57
2023/04/28 10:35:22;;;;;;;;;;;;;;;20.98;100.00;100833.47;5073239;28;19984;-52
2023/04/28 10:38:04;;;;;;;;;;;;;;;20.57;100.00;100834.06;5075426;28;19916;-57
2023/04/28 10:40:30;;;;;;;;;;;;;;;20.47;100.00;100840.25;5074835;28;19928;-56
2023/04/28 10:42:55;;;;;;;;;;;;;;;20.47;100.00;100834.03;5075719;28;19917;-52
2023/04/28 10:45:39;;;;;;;;;;;;;;;20.64;100.00;100842.00;5073713;28;19974;-55
2023/04/28 10:48:05;;;;;;;;;;;;;;;20.98;100.00;100832.66;5074559;28;19901;-50
2023/04/28 10:50:30;;;;;;;;;;;;;;;21.53;100.00;100821.38;5075322;28;19936;-52
2023/04/28 10:52:56;;;;;;;;;;;;;;;23.65;100.00;100828.25;5075199;28;19929;-49
2023/04/28 10:55:38;;;;;;;;;;;;;;;24.57;100.00;100842.19;5075469;28;19974;-50
2023/04/28 10:58:13;;;;;;;;;;;;;;;22.80;100.00;100828.94;5073433;28;19917;-52
2023/04/28 11:00:39;;;;;;;;;;;;;;;23.08;100.00;100842.19;5074864;28;19931;-50
2023/04/28 11:03:05;;;;;;;;;;;;;;;24.38;100.00;100842.13;5075005;28;19917;-53
2023/04/28 11:05:33;;;;;;;;;;;;;;;23.36;100.00;100840.69;5075185;28;20120;-51
2023/04/28 11:08:17;;;;;;;;;;;;;;;23.21;100.00;100841.56;5075271;28;19927;-54
2023/04/28 11:11:01;;;;;;;;;;;;;;;21.61;100.00;100834.47;5074038;28;19924;-55
2023/04/28 11:13:30;;;;;;;;;;;;;;;22.65;100.00;100826.25;5074040;28;19924;-54
2023/04/28 11:16:03;;;;;;;;;;;;;;;23.37;100.00;100833.34;5074694;28;19984;-54
2023/04/28 11:18:28;;;;;;;;;;;;;;;21.57;100.00;100827.94;5074847;28;19917;-49
2023/04/28 11:20:56;;;;;;;;;;;;;;;22.10;100.00;100822.25;5074840;28;19971;-56
2023/04/28 11:23:21;;;;;;;;;;;;;;;;;;5074453;28;19921;-57
2023/04/28 11:25:53;;;;;;;;;;;;;;;22.35;100.00;100815.97;5074841;28;19939;-57
2023/04/28 11:28:19;;;;;;;;;;;;;;;23.40;100.00;100821.84;5074384;28;19924;-54
2023/04/28 11:30:45;;;;;;;;;;;;;;;22.31;100.00;100819.50;5074837;28;19924;-58
2023/04/28 11:33:10;;;;;;;;;;;;;;;23.18;100.00;100832.06;5071378;28;19917;-56
2023/04/28 11:35:40;;;;;;;;;;;;;;;23.32;100.00;100815.91;5074681;28;19917;-52
2023/04/28 11:38:05;;;;;;;;;;;;;;;23.01;100.00;100826.94;5072956;28;19920;-57
2023/04/28 11:40:31;;;;;;;;;;;;;;;22.56;100.00;100826.00;5074354;28;19943;-53
2023/04/28 11:42:57;;;;;;;;;;;;;;;23.20;100.00;100824.41;5074354;28;19920;-52
2023/04/28 11:45:24;;;;;;;;;;;;;;;23.01;100.00;100826.94;5074359;28;19917;-59
2023/04/28 11:47:49;;;;;;;;;;;;;;;23.10;100.00;100829.09;5074050;28;19932;-59
2023/04/28 11:50:14;;;;;;;;;;;;;;;22.90;100.00;100830.81;5073770;28;19942;-60
2023/04/28 11:52:50;;;;;;;;;;;;;;;21.53;100.00;100837.72;5073756;28;20031;-55
2023/04/28 11:55:16;;;;;;;;;;;;;;;21.60;100.00;100835.56;5052427;28;19921;-57
2023/04/28 11:57:41;;;;;;;;;;;;;;;23.14;100.00;100836.41;5053859;28;19941;-53
2023/04/28 12:00:13;;;;;;;;;;;;;;;23.06;100.00;100845.19;5053883;28;19928;-50
2023/04/28 12:02:39;;;;;;;;;;;;;;;21.97;100.00;100839.16;5052962;28;19917;-54
2023/04/28 12:05:06;;;;;;;;;;;;;;;21.40;100.00;100833.59;5053663;28;19949;-54
2023/04/28 12:07:39;;;;;;;;;;;;;;;21.31;100.00;100836.84;5053931;28;19952;-55
2023/04/28 12:10:11;;;;;;;;;;;;;;;21.04;100.00;100835.16;5052672;28;19925;-53
2023/04/28 12:12:36;;;;;;;;;;;;;;;21.97;100.00;100841.88;5053243;28;19924;-50
2023/04/28 12:15:06;;;;;;;;;;;;;;;23.01;100.00;100851.47;5053886;28;19941;-53
2023/04/28 12:17:38;;;;;;;;;;;;;;;22.57;100.00;100846.72;5053708;28;19920;-50
2023/04/28 12:20:05;;;;;;;;;;;;;;;21.89;100.00;100846.75;5053316;28;19921;-53
2023/04/28 12:22:41;;;;;;;;;;;;;;;22.21;100.00;100842.13;5053366;28;19944;-52
2023/04/28 12:25:08;;;;;;;;;;;;;;;21.89;100.00;100837.78;5051190;28;19913;-53
2023/04/28 12:27:35;;;;;;;;;;;;;;;22.12;100.00;100850.03;5036158;28;19935;-53
2023/04/28 12:30:00;;;;;;;;;;;;;;;22.25;100.00;100845.94;5053469;28;19917;-52
2023/04/28 12:32:37;;;;;;;;;;;;;;;22.25;100.00;100842.41;5053784;28;19976;-52